createdAt,value
2023-01-03T00:04:53.993Z,0.30
2023-01-03T00:09:56.954Z,0.50
2023-01-03T00:15:01.215Z,0.60
2023-01-03T00:20:06.555Z,0.40
2023-01-03T00:25:10.080Z,0.43
2023-01-03T00:30:13.665Z,1.20
2023-01-03T00:35:18.063Z,0.80
2023-01-03T00:40:21.033Z,0.50
2023-01-03T00:45:25.681Z,0.63
2023-01-03T00:50:30.724Z,0.27
2023-01-03T00:55:36.345Z,0.80
2023-01-03T01:00:39.569Z,0.57
2023-01-03T01:05:43.847Z,0.93
2023-01-03T01:11:01.847Z,0.80
2023-01-03T01:16:06.376Z,0.73
2023-01-03T01:21:12.913Z,0.77
2023-01-03T01:26:17.342Z,0.40
2023-01-03T01:31:22.443Z,0.37
2023-01-03T01:36:29.581Z,0.50
2023-01-03T01:41:51.673Z,1.50
2023-01-03T01:46:54.611Z,0.50
2023-01-03T01:51:59.101Z,0.47
2023-01-03T01:57:02.078Z,0.87
2023-01-03T02:02:05.108Z,0.30
2023-01-03T02:07:09.763Z,0.40
2023-01-03T02:12:39.606Z,0.67
2023-01-03T02:17:50.926Z,0.87
2023-01-03T02:23:27.916Z,0.60
2023-01-03T02:29:03.281Z,1.27
2023-01-03T02:34:21.322Z,0.40
2023-01-03T02:39:28.574Z,0.67
2023-01-03T02:44:35.426Z,0.47
2023-01-03T02:49:44.001Z,0.63
2023-01-03T02:54:51.587Z,0.60
2023-01-03T02:59:57.000Z,0.33
2023-01-03T03:05:05.356Z,0.60
2023-01-03T03:10:27.882Z,0.87
2023-01-03T03:15:34.851Z,0.30
2023-01-03T03:20:56.570Z,0.60
2023-01-03T03:26:03.847Z,0.70
2023-01-03T03:31:10.247Z,1.20
2023-01-03T03:36:20.478Z,0.50
2023-01-03T03:41:51.956Z,3.60
2023-01-03T03:47:04.203Z,0.73
2023-01-03T03:52:13.976Z,0.60
2023-01-03T03:57:21.907Z,0.53
2023-01-03T04:02:27.098Z,1.00
2023-01-03T04:07:31.431Z,0.47
2023-01-03T04:12:34.320Z,2.20
2023-01-03T04:17:37.231Z,1.80
2023-01-03T04:22:41.762Z,0.87
2023-01-03T04:27:44.730Z,0.97
2023-01-03T04:32:47.618Z,0.33
2023-01-03T04:37:51.860Z,0.43
2023-01-03T04:43:12.799Z,0.40
2023-01-03T04:48:15.761Z,1.37
2023-01-03T04:53:20.063Z,0.83
2023-01-03T04:58:23.024Z,1.13
2023-01-03T05:03:28.090Z,0.40
2023-01-03T05:08:32.556Z,1.03
2023-01-03T05:13:35.558Z,1.23
2023-01-03T05:18:39.217Z,0.37
2023-01-03T05:24:01.013Z,1.10
2023-01-03T05:29:04.015Z,0.60
2023-01-03T05:34:06.911Z,0.43
2023-01-03T05:39:11.360Z,1.13
2023-01-03T05:44:14.552Z,0.90
2023-01-03T05:49:17.855Z,0.90
2023-01-03T05:54:22.490Z,0.73
2023-01-03T05:59:26.928Z,0.77
2023-01-03T06:04:29.973Z,0.57
2023-01-03T06:09:34.308Z,0.70
2023-01-03T06:14:37.206Z,1.10
2023-01-03T06:19:40.147Z,1.20
2023-01-03T06:24:44.834Z,1.00
2023-01-03T06:29:47.824Z,0.53
2023-01-03T06:34:50.786Z,0.47
2023-01-03T06:39:55.107Z,0.53
2023-01-03T06:45:15.479Z,0.60
2023-01-03T06:50:36.148Z,0.47
2023-01-03T06:55:40.777Z,0.47
2023-01-03T07:00:45.353Z,0.80
2023-01-03T07:05:48.281Z,0.60
2023-01-03T07:10:52.546Z,0.60
2023-01-03T07:15:55.563Z,0.93
2023-01-03T07:20:58.569Z,1.23
2023-01-03T07:26:02.948Z,1.40
2023-01-03T07:31:07.556Z,1.00
2023-01-03T07:36:12.638Z,1.20
2023-01-03T07:41:17.870Z,1.57
2023-01-03T07:46:22.719Z,2.00
2023-01-03T07:51:25.715Z,1.67
2023-01-03T07:56:30.110Z,1.23
2023-01-03T08:01:34.756Z,2.07
2023-01-03T08:06:37.749Z,9.67
2023-01-03T08:11:59.520Z,4.90
2023-01-03T08:17:02.475Z,2.17
2023-01-03T08:22:05.378Z,1.63
2023-01-03T08:27:09.646Z,1.33
2023-01-03T08:32:12.659Z,1.17
2023-01-03T08:37:17.814Z,1.13
2023-01-03T08:42:23.458Z,1.47
2023-01-03T08:47:26.500Z,0.80
2023-01-03T08:52:34.773Z,1.20
2023-01-03T08:57:40.350Z,0.63
2023-01-03T09:02:43.536Z,0.70
2023-01-03T09:07:46.701Z,0.90
2023-01-03T09:12:51.736Z,0.70
2023-01-03T09:17:54.651Z,0.70
2023-01-03T09:22:57.576Z,0.73
2023-01-03T09:28:01.869Z,1.20
2023-01-03T09:33:04.966Z,1.53
2023-01-03T09:38:08.260Z,1.20
2023-01-03T09:43:23.026Z,0.90
2023-01-03T09:48:31.481Z,1.37
2023-01-03T09:53:58.419Z,0.97
2023-01-03T09:59:29.639Z,1.00
2023-01-03T10:05:09.333Z,1.10
2023-01-03T10:10:18.597Z,2.73
2023-01-03T10:15:31.079Z,1.80
2023-01-03T10:20:45.753Z,0.87
2023-01-03T10:25:49.270Z,1.00
2023-01-03T10:31:08.398Z,2.20
2023-01-03T10:36:14.417Z,0.60
2023-01-03T10:41:20.954Z,1.47
2023-01-03T10:46:27.966Z,2.10
2023-01-03T10:51:40.319Z,2.40
2023-01-03T10:56:46.504Z,1.20
2023-01-03T11:02:15.117Z,1.00
2023-01-03T11:07:19.097Z,2.03
2023-01-03T11:12:30.098Z,1.73
2023-01-03T11:17:35.133Z,0.73
2023-01-03T11:22:43.093Z,1.60
2023-01-03T11:28:05.415Z,2.73
2023-01-03T11:33:31.350Z,1.50
2023-01-03T11:38:51.091Z,1.50
2023-01-03T11:44:22.144Z,1.20
2023-01-03T11:49:34.569Z,0.97
2023-01-03T11:55:04.148Z,1.87
2023-01-03T12:00:13.018Z,1.30
2023-01-03T12:05:41.138Z,1.37
2023-01-03T12:10:49.092Z,1.30
2023-01-03T12:15:59.041Z,1.40
2023-01-03T12:21:08.620Z,1.43
2023-01-03T12:26:14.604Z,2.63
2023-01-03T12:31:31.251Z,3.20
2023-01-03T12:36:41.864Z,1.67
2023-01-03T12:41:48.286Z,1.50
2023-01-03T12:46:54.203Z,3.50
2023-01-03T12:51:59.388Z,0.87
2023-01-03T12:57:17.145Z,2.20
2023-01-03T13:02:29.223Z,0.73
2023-01-03T13:07:35.114Z,0.70
2023-01-03T13:12:42.358Z,1.27
2023-01-03T13:17:46.967Z,0.90
2023-01-03T13:22:53.248Z,1.23
2023-01-03T13:27:58.432Z,2.23
2023-01-03T13:33:18.451Z,1.20
2023-01-03T13:38:28.953Z,2.80
2023-01-03T13:43:39.707Z,0.60
2023-01-03T13:48:54.863Z,0.90
2023-01-03T13:54:02.650Z,2.73
2023-01-03T13:59:19.530Z,1.00
2023-01-03T14:04:49.207Z,0.70
2023-01-03T14:10:21.927Z,0.97
2023-01-03T14:15:27.153Z,1.57
2023-01-03T14:20:35.051Z,1.80
2023-01-03T14:25:41.491Z,2.17
2023-01-03T14:30:45.361Z,2.23
2023-01-03T14:35:48.820Z,1.67
2023-01-03T14:40:54.409Z,2.13
2023-01-03T14:46:01.283Z,2.43
2023-01-03T14:51:06.270Z,1.33
2023-01-03T14:56:12.513Z,4.40
2023-01-03T15:01:16.928Z,3.90
2023-01-03T15:06:23.493Z,2.17
2023-01-03T15:11:33.992Z,2.00
2023-01-03T15:16:39.240Z,2.57
2023-01-03T15:21:43.507Z,2.10
2023-01-03T15:26:49.690Z,2.37
2023-01-03T15:31:57.694Z,4.97
2023-01-03T15:37:02.825Z,2.43
2023-01-03T15:42:51.863Z,2.30
2023-01-03T15:47:59.372Z,2.53
2023-01-03T15:53:02.379Z,2.67
2023-01-03T15:58:06.807Z,1.80
2023-01-03T16:03:17.650Z,1.80
2023-01-03T16:08:27.073Z,2.07
2023-01-03T16:13:36.262Z,2.43
2023-01-03T16:18:44.585Z,2.87
2023-01-03T16:23:47.573Z,2.17
2023-01-03T16:28:51.852Z,1.97
2023-01-03T16:33:54.865Z,2.37
2023-01-03T16:38:58.344Z,1.73
2023-01-03T16:44:02.636Z,2.33
2023-01-03T16:49:06.863Z,2.33
2023-01-03T16:54:09.809Z,2.20
2023-01-03T16:59:15.811Z,1.73
2023-01-03T17:04:18.765Z,2.13
2023-01-03T17:09:27.704Z,1.50
2023-01-03T17:14:36.110Z,2.03
2023-01-03T17:25:02.083Z,2.77
2023-01-03T17:30:09.163Z,2.63
2023-01-03T17:35:13.904Z,2.27
2023-01-03T17:40:20.321Z,1.87
2023-01-03T17:45:42.932Z,1.80
2023-01-03T17:50:46.021Z,1.87
2023-01-03T17:55:50.157Z,1.80
2023-01-03T18:00:54.433Z,1.83
2023-01-03T18:05:57.589Z,1.60
2023-01-03T18:11:00.778Z,2.60
2023-01-03T18:16:05.801Z,2.17
2023-01-03T18:21:21.232Z,3.40
2023-01-03T18:26:28.703Z,2.07
2023-01-03T18:31:33.184Z,2.63
2023-01-03T18:36:40.987Z,2.30
2023-01-03T18:41:45.843Z,3.13
2023-01-03T18:46:50.613Z,1.93
2023-01-03T18:51:54.500Z,2.97
2023-01-03T18:56:57.520Z,1.43
2023-01-03T19:02:01.913Z,2.67
2023-01-03T19:07:05.058Z,1.97
2023-01-03T19:12:10.755Z,2.47
2023-01-03T19:17:17.408Z,2.60
2023-01-03T19:22:26.734Z,2.33
2023-01-03T19:27:36.057Z,2.00
2023-01-03T19:32:40.928Z,1.40
2023-01-03T19:37:43.885Z,1.70
2023-01-03T19:42:52.552Z,1.90
2023-01-03T19:47:57.586Z,1.40
2023-01-03T19:53:02.025Z,1.40
2023-01-03T19:58:09.452Z,1.40
2023-01-03T20:03:24.055Z,1.70
2023-01-03T20:08:27.276Z,3.50
2023-01-03T20:13:30.195Z,2.80
2023-01-03T20:18:36.438Z,2.20
2023-01-03T20:23:43.357Z,2.00
2023-01-03T20:28:46.299Z,2.17
2023-01-03T20:33:52.073Z,1.43
2023-01-03T20:38:56.461Z,1.83
2023-01-03T20:43:59.558Z,2.57
2023-01-03T20:49:04.741Z,3.73
2023-01-03T20:54:07.690Z,3.30
2023-01-03T20:59:16.406Z,4.67
2023-01-03T21:04:20.664Z,3.57
2023-01-03T21:09:23.582Z,2.07
2023-01-03T21:14:26.452Z,1.67
2023-01-03T21:19:30.696Z,1.73
2023-01-03T21:24:38.667Z,1.87
2023-01-03T21:29:42.114Z,1.90
2023-01-03T21:34:46.437Z,2.00
2023-01-03T21:39:49.547Z,2.27
2023-01-03T21:44:52.572Z,3.70
2023-01-03T21:49:57.076Z,2.50
2023-01-03T21:54:59.968Z,3.57
2023-01-03T22:00:02.942Z,2.87
2023-01-03T22:05:09.317Z,2.87
2023-01-03T22:10:18.946Z,2.53
2023-01-03T22:15:22.490Z,3.20
2023-01-03T22:20:30.897Z,2.30
2023-01-03T22:25:36.472Z,3.40
2023-01-03T22:30:40.130Z,3.27
2023-01-03T22:35:44.407Z,3.50
2023-01-03T22:40:47.321Z,4.07
2023-01-03T22:45:50.320Z,2.93
2023-01-03T22:50:54.633Z,3.77
2023-01-03T22:55:57.544Z,2.10
2023-01-03T23:01:06.833Z,2.90
2023-01-03T23:06:13.998Z,3.57
2023-01-03T23:11:36.176Z,3.80
2023-01-03T23:16:40.010Z,4.17
2023-01-03T23:21:46.160Z,2.93
2023-01-03T23:26:49.207Z,3.70
2023-01-03T23:31:52.913Z,2.83
2023-01-03T23:36:57.214Z,4.13
2023-01-03T23:42:00.139Z,3.20
2023-01-03T23:47:09.281Z,3.63
2023-01-03T23:52:15.851Z,2.30
2023-01-03T23:57:18.783Z,2.67
